Time;durP1;ratioP1;P1;durP2;ratioP2;P2;SDS_P1;SDS_P2;PMS_P1;PMS_P2;Temp;Humidity;BMP_temperature;BMP_pressure;BME280_temperature;BME280_humidity;BME280_pressure;Samples;Min_cycle;Max_cycle;Signal;HPM_P1;HPM_P2
2022/01/05 00:01:16;;;;;;;5.05;1.42;;;;;;;3.87;77.18;100253.13;5041968;28;20048;-83
2022/01/05 00:03:41;;;;;;;6.60;1.80;;;;;;;3.85;76.43;100246.22;5026780;28;20044;-83
2022/01/05 00:06:07;;;;;;;4.70;1.42;;;;;;;3.85;75.71;100251.41;5039295;28;20055;-83
2022/01/05 00:08:32;;;;;;;8.68;1.90;;;;;;;3.87;75.38;100253.13;5003901;28;20221;-83
2022/01/05 00:10:58;;;;;;;8.95;1.30;;;;;;;3.85;75.25;100256.59;5048112;28;20032;-83
2022/01/05 00:13:23;;;;;;;6.50;1.55;;;;;;;3.85;74.76;100261.78;5006857;28;20052;-83
2022/01/05 00:15:48;;;;;;;6.05;1.50;;;;;;;3.85;74.93;100256.59;5040981;28;20029;-83
2022/01/05 00:18:14;;;;;;;9.55;1.77;;;;;;;3.84;74.58;100265.25;5026775;28;20256;-83
2022/01/05 00:20:39;;;;;;;4.47;1.17;;;;;;;3.83;74.62;100258.38;5029173;28;20037;-83
2022/01/05 00:23:05;;;;;;;6.38;1.52;;;;;;;3.83;74.69;100270.47;5040878;28;20092;-83
2022/01/05 00:25:30;;;;;;;8.38;1.88;;;;;;;3.81;74.44;100257.56;5029593;28;20092;-83
2022/01/05 00:27:56;;;;;;;8.55;1.63;;;;;;;3.81;74.15;100260.13;5042180;28;20045;-83
2022/01/05 00:30:21;;;;;;;4.65;1.30;;;;;;;3.79;73.74;100259.31;5028482;28;20037;-83
2022/01/05 00:32:46;;;;;;;6.40;1.30;;;;;;;3.76;73.87;100267.16;5022479;28;20075;-83
2022/01/05 00:35:12;;;;;;;5.75;1.33;;;;;;;3.74;73.43;100261.16;5028082;28;20053;-83
2022/01/05 00:37:37;;;;;;;5.82;1.30;;;;;;;3.73;73.64;100261.19;5027470;28;20045;-83
2022/01/05 00:40:03;;;;;;;7.80;1.58;;;;;;;3.70;73.50;100266.47;5004902;28;20041;-83
2022/01/05 00:42:29;;;;;;;3.47;1.10;;;;;;;3.69;73.67;100263.00;5023601;28;20029;-83
2022/01/05 00:44:55;;;;;;;9.07;1.40;;;;;;;3.69;73.72;100256.97;5023122;28;20316;-83
2022/01/05 00:47:20;;;;;;;9.75;1.60;;;;;;;3.68;73.85;100257.88;5023260;28;20045;-83
2022/01/05 00:49:46;;;;;;;7.65;1.30;;;;;;;3.66;73.95;100265.66;5023221;28;20029;-83
2022/01/05 00:52:12;;;;;;;10.15;1.67;;;;;;;3.65;73.95;100257.03;5039725;28;20037;-83
2022/01/05 00:54:37;;;;;;;7.30;1.23;;;;;;;3.62;73.85;100246.75;5008060;28;20045;-83
2022/01/05 00:57:03;;;;;;;8.88;1.80;;;;;;;3.62;73.82;100258.81;5021198;28;20198;-83
2022/01/05 00:59:29;;;;;;;7.75;2.10;;;;;;;3.59;74.31;100259.75;5004153;28;20056;-83
2022/01/05 01:01:54;;;;;;;7.65;1.70;;;;;;;3.56;74.14;100258.97;5021388;28;20053;-83
2022/01/05 01:04:20;;;;;;;9.00;1.73;;;;;;;3.54;74.33;100271.94;5021291;28;20060;-83
2022/01/05 01:06:45;;;;;;;9.68;1.38;;;;;;;3.54;73.85;100265.91;5004197;28;20029;-83
2022/01/05 01:09:10;;;;;;;6.68;1.48;;;;;;;3.51;74.03;100265.97;5004041;28;20044;-82
2022/01/05 01:11:36;;;;;;;9.95;1.80;;;;;;;3.51;74.21;100260.78;5024374;28;20041;-83
2022/01/05 01:14:01;;;;;;;7.32;1.40;;;;;;;3.49;73.42;100278.09;5041029;28;20052;-83
2022/01/05 01:16:27;;;;;;;7.32;1.27;;;;;;;3.48;73.49;100279.00;5023679;28;20033;-83
2022/01/05 01:18:52;;;;;;;10.77;1.73;;;;;;;3.48;72.45;100273.81;5023250;28;20348;-83
2022/01/05 01:21:18;;;;;;;7.32;1.13;;;;;;;3.45;72.19;100275.56;5040667;28;20071;-83
2022/01/05 01:23:54;;;;;;;8.18;2.08;;;;;;;3.45;72.13;100272.13;5003249;28;20129;-82
2022/01/05 01:26:19;;;;;;;11.18;1.70;;;;;;;3.43;71.87;100260.97;5024842;28;20048;-82
2022/01/05 01:28:44;;;;;;;7.85;1.38;;;;;;;3.43;71.90;100266.13;5023665;28;20025;-83
2022/01/05 01:31:10;;;;;;;6.35;1.25;;;;;;;3.41;72.22;100270.50;5040889;28;20116;-83
2022/01/05 01:33:35;;;;;;;4.38;1.20;;;;;;;3.39;72.21;100272.28;5020496;28;20263;-83
2022/01/05 01:36:01;;;;;;;8.35;2.58;;;;;;;3.38;71.90;100270.56;4986881;28;20361;-83
2022/01/05 01:38:26;;;;;;;11.52;1.63;;;;;;;3.39;71.89;100278.28;5003674;28;20042;-82
2022/01/05 01:40:52;;;;;;;7.07;1.70;;;;;;;3.37;71.98;100269.72;5003748;28;20068;-83
2022/01/05 01:43:17;;;;;;;8.32;1.30;;;;;;;3.35;72.42;100271.47;5040181;28;20056;-82
2022/01/05 01:45:43;;;;;;;9.20;1.58;;;;;;;3.35;72.73;100271.47;5039981;28;20022;-83
2022/01/05 01:48:08;;;;;;;7.50;1.55;;;;;;;3.35;73.14;100281.84;5021326;28;20029;-83
2022/01/05 01:50:33;;;;;;;4.80;1.42;;;;;;;3.35;73.21;100286.16;5003673;28;20385;-83
2022/01/05 01:53:00;;;;;;;11.60;2.03;;;;;;;3.34;73.52;100276.69;5002885;28;20056;-83
2022/01/05 01:55:25;;;;;;;8.43;1.83;;;;;;;3.33;73.73;100270.66;5023072;28;20028;-83
2022/01/05 01:57:51;;;;;;;15.75;2.85;;;;;;;3.35;73.72;100284.41;5024566;28;20376;-83
2022/01/05 02:00:16;;;;;;;10.57;1.92;;;;;;;3.37;73.68;100280.06;5007000;28;20045;-82
2022/01/05 02:02:43;;;;;;;10.38;2.10;;;;;;;3.36;73.83;100291.28;5024482;28;20327;-83
2022/01/05 02:05:08;;;;;;;8.50;1.50;;;;;;;3.37;74.05;100297.34;4990812;28;20025;-83
2022/01/05 02:07:34;;;;;;;6.13;1.35;;;;;;;3.37;74.27;100295.59;5024296;28;20046;-83
2022/01/05 02:09:59;;;;;;;10.52;2.05;;;;;;;3.38;74.51;100297.28;5006573;28;20034;-83
2022/01/05 02:12:26;;;;;;;12.00;2.38;;;;;;;3.40;74.50;100299.84;4990088;28;20269;-82
2022/01/05 02:14:53;;;;;;;11.50;2.42;;;;;;;3.39;74.54;100301.59;5023851;28;20042;-83
2022/01/05 02:17:23;;;;;;;9.00;2.15;;;;;;;3.40;74.85;100299.84;5024227;28;20280;-82
2022/01/05 02:19:48;;;;;;;7.93;1.60;;;;;;;3.41;75.15;100302.41;5042880;28;20037;-83
2022/01/05 02:22:13;;;;;;;14.02;2.38;;;;;;;3.44;74.77;100286.81;5026032;28;20108;-83
2022/01/05 02:24:39;;;;;;;7.72;1.58;;;;;;;3.45;74.78;100283.34;5025678;28;20037;-83
2022/01/05 02:27:05;;;;;;;12.73;2.63;;;;;;;3.46;75.05;100290.22;5042549;28;20363;-83
2022/01/05 02:29:30;;;;;;;11.73;2.03;;;;;;;3.46;75.19;100287.63;5043591;28;20080;-83
2022/01/05 02:31:59;;;;;;;9.15;1.80;;;;;;;3.50;75.42;100291.03;5025032;28;20127;-82
2022/01/05 02:34:24;;;;;;;9.20;1.80;;;;;;;3.52;75.66;100288.41;5025503;28;20054;-83
2022/01/05 02:36:50;;;;;;;9.68;1.95;;;;;;;3.54;75.88;100297.00;5025387;28;20228;-82
2022/01/05 02:39:15;;;;;;;12.65;2.17;;;;;;;3.53;75.99;100290.09;5043564;28;20049;-82
2022/01/05 02:41:41;;;;;;;5.75;2.05;;;;;;;3.54;76.30;100294.41;5026003;28;20049;-83
2022/01/05 02:44:06;;;;;;;14.65;2.10;;;;;;;3.58;76.51;100301.22;5008496;28;20108;-83
2022/01/05 02:46:32;;;;;;;5.00;1.17;;;;;;;3.58;76.47;100296.03;5043701;28;20036;-83
2022/01/05 02:48:58;;;;;;;13.85;2.00;;;;;;;3.58;76.36;100298.63;5006400;28;20042;-83
2022/01/05 02:51:24;;;;;;;8.43;1.92;;;;;;;3.58;76.82;100301.22;5021236;28;20037;-83
2022/01/05 02:53:49;;;;;;;14.38;3.08;;;;;;;3.61;76.51;100304.59;5009040;28;20264;-82
2022/01/05 02:56:15;;;;;;;8.88;1.52;;;;;;;3.60;76.70;100308.09;5025553;28;20064;-83
2022/01/05 02:58:40;;;;;;;7.43;1.85;;;;;;;3.62;76.48;100318.38;5025421;28;20390;-82
2022/01/05 03:01:06;;;;;;;9.15;2.53;;;;;;;3.61;76.28;100322.72;4996844;28;20052;-83
2022/01/05 03:03:31;;;;;;;14.27;2.15;;;;;;;3.61;76.23;100316.69;5037659;28;20037;-84
2022/01/05 03:05:57;;;;;;;6.00;1.85;;;;;;;3.59;76.29;100318.47;5020808;28;20232;-83
2022/01/05 03:08:22;;;;;;;11.05;2.20;;;;;;;3.58;76.45;100321.94;5022029;28;20218;-84
2022/01/05 03:10:48;;;;;;;10.70;2.20;;;;;;;3.58;76.42;100325.38;5005245;28;20030;-83
2022/01/05 03:13:13;;;;;;;12.00;2.58;;;;;;;3.58;76.62;100329.69;5022451;28;20218;-82
2022/01/05 03:15:39;;;;;;;13.32;2.58;;;;;;;3.58;76.46;100327.09;5005427;28;20040;-83
2022/01/05 03:18:04;;;;;;;11.75;1.95;;;;;;;3.58;76.69;100327.94;5021900;28;20041;-83
2022/01/05 03:20:30;;;;;;;6.90;1.67;;;;;;;3.59;76.75;100331.41;5022090;28;20068;-83
2022/01/05 03:22:59;;;;;;;10.10;1.88;;;;;;;3.58;76.68;100332.28;5023157;28;20049;-83
2022/01/05 03:25:24;;;;;;;7.45;1.67;;;;;;;3.56;76.75;100341.81;5021849;28;20088;-83
2022/01/05 03:27:50;;;;;;;6.68;1.50;;;;;;;3.56;76.99;100347.00;5023090;28;20112;-83
2022/01/05 03:30:17;;;;;;;13.45;2.30;;;;;;;3.58;77.28;100340.06;5005721;28;20036;-83
2022/01/05 03:33:25;;;;;;;8.65;2.05;;;;;;;3.58;77.46;100340.91;5022111;28;20033;-83
2022/01/05 03:35:34;;;;;;;10.35;2.38;;;;;;;3.60;77.72;100336.56;5017390;28;20057;-83
2022/01/05 03:37:59;;;;;;;11.63;2.08;;;;;;;3.60;77.71;100328.81;5024730;28;20327;-83
2022/01/05 03:40:25;;;;;;;13.00;2.97;;;;;;;3.61;77.92;100338.25;5008510;28;20041;-83
2022/01/05 03:42:50;;;;;;;20.70;3.13;;;;;;;3.63;77.95;100340.81;5024954;28;20296;-83
2022/01/05 03:45:16;;;;;;;12.85;2.10;;;;;;;3.63;78.10;100343.41;5025550;28;20040;-83
2022/01/05 03:47:41;;;;;;;8.18;2.00;;;;;;;3.64;78.08;100338.22;5007815;28;20025;-83
2022/01/05 03:50:07;;;;;;;18.15;2.72;;;;;;;3.66;77.93;100361.50;5024440;28;20251;-83
2022/01/05 03:52:32;;;;;;;11.50;2.33;;;;;;;3.68;77.96;100353.69;5024987;28;20040;-85
2022/01/05 03:54:58;;;;;;;8.27;1.80;;;;;;;3.68;77.75;100364.91;4993321;28;20025;-85
2022/01/05 03:57:25;;;;;;;10.57;2.00;;;;;;;3.69;77.92;100352.78;5009956;28;20132;-85
2022/01/05 03:59:50;;;;;;;10.43;2.38;;;;;;;3.71;77.98;100351.03;5043628;28;20075;-83
2022/01/05 04:02:16;;;;;;;12.02;2.00;;;;;;;3.72;77.94;100357.91;5007821;28;20037;-83
2022/01/05 04:04:41;;;;;;;8.98;2.17;;;;;;;3.73;77.71;100360.47;5008043;28;20357;-83
2022/01/05 04:07:06;;;;;;;9.27;2.25;;;;;;;3.75;77.73;100350.09;5041515;28;20029;-83
2022/01/05 04:09:32;;;;;;;9.10;1.38;;;;;;;3.75;77.70;100353.53;5042288;28;20021;-83
2022/01/05 04:11:57;;;;;;;8.80;1.48;;;;;;;3.77;77.43;100376.81;5024186;28;20049;-84
2022/01/05 04:14:23;;;;;;;17.13;2.40;;;;;;;3.78;77.39;100357.78;5041936;28;20270;-83
2022/01/05 04:16:48;;;;;;;14.27;2.60;;;;;;;3.78;77.49;100355.19;5023652;28;20041;-82
2022/01/05 04:19:13;;;;;;;12.05;2.10;;;;;;;3.77;77.56;100362.13;5041277;28;20328;-83
2022/01/05 04:21:39;;;;;;;8.98;2.05;;;;;;;3.78;77.80;100373.31;5023760;28;20045;-83
2022/01/05 04:24:04;;;;;;;10.23;2.38;;;;;;;3.79;78.01;100364.69;5024001;28;20037;-83
2022/01/05 04:26:30;;;;;;;7.18;1.75;;;;;;;3.80;77.95;100359.47;5041660;28;20036;-83
2022/01/05 04:28:55;;;;;;;13.13;2.90;;;;;;;3.81;77.97;100373.28;5023716;28;20395;-82
2022/01/05 04:31:21;;;;;;;11.52;2.00;;;;;;;3.81;78.04;100366.34;5024148;28;20041;-84
2022/01/05 04:33:46;;;;;;;11.23;2.08;;;;;;;3.83;78.01;100371.50;5024147;28;20037;-83
2022/01/05 04:36:12;;;;;;;11.15;2.28;;;;;;;3.83;77.65;100380.13;5040882;28;20415;-83
2022/01/05 04:38:37;;;;;;;11.55;2.10;;;;;;;3.84;77.59;100373.22;5024201;28;20045;-83
2022/01/05 04:41:02;;;;;;;12.75;2.20;;;;;;;3.84;77.33;100375.81;5041711;28;20354;-83
2022/01/05 04:43:28;;;;;;;8.32;2.05;;;;;;;3.86;77.85;100376.63;5041924;28;20223;-83
2022/01/05 04:45:53;;;;;;;8.13;1.90;;;;;;;3.85;77.43;100373.16;5041322;28;20218;-83
2022/01/05 04:48:19;;;;;;;7.50;1.90;;;;;;;3.84;77.26;100368.88;5024017;28;20033;-83
2022/01/05 04:50:44;;;;;;;8.63;2.10;;;;;;;3.87;77.11;100367.09;5041810;28;20210;-83
2022/01/05 04:53:11;;;;;;;15.38;1.85;;;;;;;3.86;77.32;100374.03;5007049;28;20047;-83
2022/01/05 04:55:38;;;;;;;12.98;2.10;;;;;;;3.86;77.06;100374.03;5041569;28;20044;-83
2022/01/05 04:58:04;;;;;;;13.55;2.20;;;;;;;3.85;77.57;100388.72;5041215;28;20398;-83
2022/01/05 05:00:29;;;;;;;7.32;2.00;;;;;;;3.86;77.71;100379.22;5023624;28;20036;-84
2022/01/05 05:02:55;;;;;;;11.82;1.85;;;;;;;3.87;77.76;100385.25;5007216;28;20025;-83
2022/01/05 05:05:20;;;;;;;8.05;2.28;;;;;;;3.88;77.75;100389.56;5023770;28;20220;-83
2022/01/05 05:07:46;;;;;;;11.35;2.72;;;;;;;3.87;77.78;100387.84;5041463;28;20042;-83
2022/01/05 05:10:11;;;;;;;13.32;2.00;;;;;;;3.87;77.72;100406.81;5040829;28;20051;-82
2022/01/05 05:12:36;;;;;;;14.10;2.80;;;;;;;3.87;77.82;100400.78;5040987;28;20158;-83
2022/01/05 05:15:02;;;;;;;8.98;2.45;;;;;;;3.88;77.40;100390.41;5022813;28;20044;-83
2022/01/05 05:17:27;;;;;;;10.73;2.22;;;;;;;3.87;77.60;100386.09;5040741;28;20115;-83
2022/01/05 05:19:53;;;;;;;8.77;2.10;;;;;;;3.88;77.62;100405.94;5040799;28;20094;-83
2022/01/05 05:22:18;;;;;;;12.77;3.13;;;;;;;3.88;77.56;100395.59;5041262;28;20040;-83
2022/01/05 05:24:44;;;;;;;10.40;2.35;;;;;;;3.88;77.65;100407.69;5040923;28;20332;-83
2022/01/05 05:27:09;;;;;;;16.05;2.40;;;;;;;3.87;77.55;100400.78;5040077;28;20079;-83
2022/01/05 05:29:34;;;;;;;15.48;2.08;;;;;;;3.87;77.61;100396.44;5042384;28;20143;-82
2022/01/05 05:32:00;;;;;;;13.55;2.15;;;;;;;3.87;77.70;100409.41;5026991;28;20067;-83
2022/01/05 05:34:25;;;;;;;7.22;1.70;;;;;;;3.87;77.97;100399.03;5035310;28;20265;-83
2022/01/05 05:36:51;;;;;;;10.48;2.28;;;;;;;3.87;78.08;100404.22;5007655;28;20046;-83
2022/01/05 05:39:16;;;;;;;20.25;3.38;;;;;;;3.87;78.31;100401.63;4991742;28;20045;-83
2022/01/05 05:41:42;;;;;;;12.60;2.70;;;;;;;3.91;78.36;100405.00;4991076;28;20038;-83
2022/01/05 05:44:07;;;;;;;12.80;2.17;;;;;;;3.91;78.47;100420.56;5007188;28;20383;-83
2022/01/05 05:46:34;;;;;;;12.63;2.42;;;;;;;3.92;78.33;100397.22;5024308;28;20044;-83
2022/01/05 05:48:59;;;;;;;15.77;2.58;;;;;;;3.93;78.52;100392.88;5024966;28;20097;-82
2022/01/05 05:51:25;;;;;;;14.73;2.53;;;;;;;3.95;78.26;100396.31;4991082;28;20042;-83
2022/01/05 05:53:50;;;;;;;10.68;1.80;;;;;;;3.96;78.18;100403.19;5024610;28;20048;-83
2022/01/05 05:56:15;;;;;;;11.15;2.33;;;;;;;3.95;78.18;100409.28;5025112;28;20042;-83
2022/01/05 05:58:41;;;;;;;8.32;2.03;;;;;;;3.96;77.74;100404.03;5007751;28;20034;-85
2022/01/05 06:01:06;;;;;;;8.02;1.80;;;;;;;3.96;77.75;100403.19;5006814;28;20828;-86
2022/01/05 06:03:32;;;;;;;19.15;2.58;;;;;;;3.97;77.93;100412.69;5024583;28;20080;-85
2022/01/05 06:05:57;;;;;;;9.60;2.05;;;;;;;3.96;78.19;100413.56;5006002;28;20033;-83
2022/01/05 06:08:23;;;;;;;8.82;2.08;;;;;;;3.96;77.98;100411.81;5023640;28;20041;-85
2022/01/05 06:10:48;;;;;;;8.20;2.00;;;;;;;3.97;78.46;100416.13;5006679;28;20050;-83
2022/01/05 06:13:14;;;;;;;14.57;2.10;;;;;;;3.98;78.31;100404.00;5006989;28;20038;-84
2022/01/05 06:15:39;;;;;;;7.53;1.67;;;;;;;3.99;78.09;100416.94;5024504;28;20280;-84
2022/01/05 06:18:05;;;;;;;12.15;2.80;;;;;;;4.03;78.07;100407.38;5041440;28;20104;-84
2022/01/05 06:20:30;;;;;;;11.48;2.25;;;;;;;4.03;78.36;100408.22;5043864;28;20352;-84
2022/01/05 06:22:55;;;;;;;15.88;2.60;;;;;;;4.02;78.63;100408.22;5043879;28;20043;-85
2022/01/05 06:25:21;;;;;;;10.23;2.35;;;;;;;4.05;78.71;100418.53;5025372;28;20068;-85
2022/01/05 06:27:46;;;;;;;8.85;2.08;;;;;;;4.09;79.00;100434.88;5026216;28;20040;-85
2022/01/05 06:30:12;;;;;;;11.32;2.08;;;;;;;4.10;79.38;100434.03;5009023;28;20033;-85
2022/01/05 06:32:41;;;;;;;16.73;2.47;;;;;;;4.13;79.58;100439.13;5006583;28;20419;-85
2022/01/05 06:35:07;;;;;;;14.98;2.67;;;;;;;4.14;79.66;100433.06;5043369;28;20057;-85
2022/01/05 06:37:33;;;;;;;13.80;2.45;;;;;;;4.15;79.67;100450.34;5026404;28;20124;-84
2022/01/05 06:39:58;;;;;;;13.23;2.60;;;;;;;4.16;79.66;100444.25;5043544;28;20029;-84
2022/01/05 06:42:24;;;;;;;12.35;2.55;;;;;;;4.16;79.53;100436.47;5042940;28;20045;-84
2022/01/05 06:44:49;;;;;;;13.48;2.30;;;;;;;4.17;79.49;100435.59;5009041;28;20033;-84
2022/01/05 06:47:15;;;;;;;17.38;2.63;;;;;;;4.17;79.48;100440.78;5025636;28;20042;-84
2022/01/05 06:49:40;;;;;;;11.95;2.60;;;;;;;4.18;79.73;100455.44;5025569;28;20029;-84
2022/01/05 06:52:06;;;;;;;10.88;2.28;;;;;;;4.18;80.09;100455.44;5025112;28;20041;-84
2022/01/05 06:54:31;;;;;;;14.55;2.80;;;;;;;4.18;80.12;100452.84;5043553;28;20066;-84
2022/01/05 06:56:57;;;;;;;15.65;2.83;;;;;;;4.17;80.31;100451.16;5023548;28;20021;-84
2022/01/05 06:59:22;;;;;;;14.55;3.13;;;;;;;4.17;80.34;100451.16;5003045;28;20041;-84
2022/01/05 07:01:48;;;;;;;13.43;2.70;;;;;;;4.17;80.41;100438.19;5024062;28;20605;-83
2022/01/05 07:04:13;;;;;;;12.40;2.65;;;;;;;4.17;80.35;100451.16;5005615;28;20050;-84
2022/01/05 07:06:38;;;;;;;14.95;2.28;;;;;;;4.16;80.52;100460.66;5036648;28;20063;-84
2022/01/05 07:09:05;;;;;;;16.15;3.17;;;;;;;4.18;80.59;100473.56;5025354;28;20265;-84
2022/01/05 07:11:31;;;;;;;17.35;2.47;;;;;;;4.18;80.20;100461.50;5025267;28;20052;-85
2022/01/05 07:13:57;;;;;;;13.02;2.30;;;;;;;4.19;80.27;100462.34;5042995;28;20037;-85
2022/01/05 07:16:23;;;;;;;13.43;2.35;;;;;;;4.21;80.07;100476.13;5008241;28;20083;-84
2022/01/05 07:18:48;;;;;;;15.32;2.38;;;;;;;4.20;80.29;100474.41;5023137;28;20045;-84
2022/01/05 07:21:14;;;;;;;16.35;2.50;;;;;;;4.20;80.72;100472.69;5030789;28;20055;-85
2022/01/05 07:23:39;;;;;;;8.90;1.90;;;;;;;4.21;80.53;100486.47;5024191;28;20272;-84
2022/01/05 07:26:04;;;;;;;16.05;2.65;;;;;;;4.21;80.83;100479.56;5040923;28;20037;-84
2022/01/05 07:28:30;;;;;;;18.30;2.65;;;;;;;4.23;81.07;100508.88;5024754;28;20033;-84
2022/01/05 07:30:55;;;;;;;10.80;2.05;;;;;;;4.24;81.26;100486.44;5021124;28;20076;-84
2022/01/05 07:33:21;;;;;;;12.25;2.58;;;;;;;4.26;81.20;100492.44;5017191;28;20120;-84
2022/01/05 07:35:46;;;;;;;15.82;2.38;;;;;;;4.28;81.20;100498.44;5002948;28;20052;-84
2022/01/05 07:38:11;;;;;;;10.52;2.28;;;;;;;4.30;81.15;100499.25;5006833;28;20501;-84
2022/01/05 07:40:37;;;;;;;13.93;2.17;;;;;;;4.31;81.25;100516.53;5042041;28;20067;-84
2022/01/05 07:43:06;;;;;;;20.92;3.22;;;;;;;4.33;81.30;100495.75;5004975;28;20039;-84
2022/01/05 07:45:31;;;;;;;18.33;3.10;;;;;;;4.36;81.30;100508.66;5033122;28;20041;-84
2022/01/05 07:47:57;;;;;;;22.77;2.25;;;;;;;4.36;81.43;100503.47;5007477;28;20332;-84
2022/01/05 07:50:22;;;;;;;12.65;2.83;;;;;;;4.37;81.58;100520.75;5017548;28;20045;-84
2022/01/05 07:52:48;;;;;;;13.88;2.40;;;;;;;4.39;81.64;100506.84;5042461;28;20360;-84
2022/01/05 07:55:13;;;;;;;12.48;2.17;;;;;;;4.42;81.53;100516.28;5041286;28;20041;-84
2022/01/05 07:57:39;;;;;;;11.65;2.00;;;;;;;4.45;81.57;100521.41;5021653;28;20025;-84
2022/01/05 08:00:06;;;;;;;17.73;2.42;;;;;;;4.45;81.61;100515.38;5032131;28;20032;-84
2022/01/05 08:02:32;;;;;;;13.80;2.38;;;;;;;4.47;81.45;100521.41;5012049;28;20068;-85
2022/01/05 08:04:57;;;;;;;13.70;2.10;;;;;;;4.50;81.14;100531.72;5005700;28;20034;-84
2022/01/05 08:07:23;;;;;;;11.98;2.00;;;;;;;4.51;81.16;100548.97;5039136;28;20193;-83
2022/01/05 08:09:48;;;;;;;17.63;3.17;;;;;;;4.52;81.08;100532.53;5037068;28;20026;-85
2022/01/05 08:12:13;;;;;;;18.23;3.72;;;;;;;4.54;80.87;100534.19;5038381;28;20041;-85
2022/01/05 08:14:39;;;;;;;16.85;2.67;;;;;;;4.54;81.10;100544.56;5006417;28;20061;-84
2022/01/05 08:17:04;;;;;;;14.95;2.72;;;;;;;4.55;81.34;100556.66;5033139;28;20056;-84
2022/01/05 08:19:31;;;;;;;10.20;2.03;;;;;;;4.56;81.53;100545.38;5034112;28;20123;-84
2022/01/05 08:21:56;;;;;;;19.08;2.35;;;;;;;4.57;82.04;100549.69;5038701;28;20108;-84
2022/01/05 08:24:22;;;;;;;16.10;2.60;;;;;;;4.57;82.40;100557.47;5015220;28;20034;-84
2022/01/05 08:26:47;;;;;;;14.15;2.58;;;;;;;4.57;82.65;100560.09;5020259;28;20037;-84
2022/01/05 08:29:13;;;;;;;18.10;2.63;;;;;;;4.56;82.65;100562.69;5033383;28;20412;-84
2022/01/05 08:31:38;;;;;;;12.43;3.38;;;;;;;4.56;83.05;100560.09;5036439;28;20037;-84
2022/01/05 08:34:04;;;;;;;10.15;2.38;;;;;;;4.57;83.23;100565.25;5004578;28;20041;-84
2022/01/05 08:36:29;;;;;;;15.32;1.98;;;;;;;4.58;83.61;100576.47;5039604;28;20060;-84
2022/01/05 08:38:54;;;;;;;14.82;2.55;;;;;;;4.58;83.72;100579.09;5020630;28;20049;-84
2022/01/05 08:41:20;;;;;;;10.98;2.22;;;;;;;4.56;83.81;100571.31;5024717;28;20041;-84
2022/01/05 08:43:46;;;;;;;20.00;2.70;;;;;;;4.58;83.80;100576.47;5035182;28;20255;-83
2022/01/05 08:46:11;;;;;;;14.48;3.10;;;;;;;4.57;83.96;100598.97;5007171;28;20227;-84
2022/01/05 08:48:39;;;;;;;17.02;3.05;;;;;;;4.58;83.68;100595.53;5021443;28;20326;-84
2022/01/05 08:51:04;;;;;;;17.60;3.08;;;;;;;4.59;83.37;100604.16;4992534;28;20220;-84
2022/01/05 08:53:30;;;;;;;11.30;2.45;;;;;;;4.60;83.51;100588.56;5021357;28;20037;-84
2022/01/05 08:55:55;;;;;;;13.75;2.28;;;;;;;4.61;83.36;100594.59;5005844;28;20383;-83
2022/01/05 08:58:21;;;;;;;13.45;2.60;;;;;;;4.64;83.40;100598.84;5042303;28;20037;-84
2022/01/05 09:00:48;;;;;;;25.95;2.92;;;;;;;4.63;83.40;100616.16;5020875;28;20032;-84
2022/01/05 09:03:14;;;;;;;20.92;3.15;;;;;;;4.65;83.51;100618.72;5039479;28;20103;-84
2022/01/05 09:05:40;;;;;;;11.02;2.08;;;;;;;4.66;83.63;100623.03;5038205;28;20029;-84
2022/01/05 09:08:05;;;;;;;18.17;3.03;;;;;;;4.67;83.61;100606.59;5042608;28;20029;-83
2022/01/05 09:10:30;;;;;;;13.80;2.63;;;;;;;4.68;83.73;100608.31;5029033;28;20049;-84
2022/01/05 09:12:56;;;;;;;17.80;3.13;;;;;;;4.70;83.51;100607.38;5024625;28;20064;-84
2022/01/05 09:15:22;;;;;;;18.73;3.13;;;;;;;4.71;83.25;100637.63;5020311;28;20164;-84
2022/01/05 09:17:47;;;;;;;24.13;3.53;;;;;;;4.74;83.30;100619.41;5022708;28;20312;-83
2022/01/05 09:20:13;;;;;;;23.00;3.55;;;;;;;4.75;83.51;100610.75;4998708;28;20037;-83
2022/01/05 09:22:38;;;;;;;23.23;2.80;;;;;;;4.75;83.64;100644.47;4995100;28;20397;-84
2022/01/05 09:25:08;;;;;;;18.67;3.10;;;;;;;4.78;83.78;100626.25;5023726;28;20036;-84
2022/01/05 09:27:33;;;;;;;19.17;2.80;;;;;;;4.79;84.19;100642.66;5020877;28;20105;-84
2022/01/05 09:29:59;;;;;;;22.17;2.92;;;;;;;4.80;84.06;100647.81;5037511;28;20041;-85
2022/01/05 09:32:24;;;;;;;18.17;2.47;;;;;;;4.82;83.93;100645.22;5043018;28;20041;-85
2022/01/05 09:34:50;;;;;;;15.93;2.35;;;;;;;4.85;84.20;100650.31;5038398;28;20052;-84
2022/01/05 09:37:28;;;;;;;10.38;2.40;;;;;;;4.86;83.72;100643.38;5028100;28;20332;-84
2022/01/05 09:42:38;;;;;;;24.88;2.67;;;;;;;4.88;83.55;100659.78;5023263;28;20306;-84
2022/01/05 09:45:15;;;;;;;16.75;2.70;;;;;;;4.91;83.41;100659.72;4986719;28;20240;-85
2022/01/05 09:47:52;;;;;;;21.13;2.95;;;;;;;4.92;83.53;100657.09;5006034;28;20037;-85
2022/01/05 09:50:17;;;;;;;13.43;2.65;;;;;;;4.95;83.63;100676.97;5011775;28;20335;-83
2022/01/05 09:52:44;;;;;;;18.48;3.13;;;;;;;4.96;84.13;100681.25;5018307;28;20041;-84
2022/01/05 09:55:11;;;;;;;18.88;2.70;;;;;;;4.97;84.73;100706.31;5002498;28;20033;-84
2022/01/05 09:57:38;;;;;;;24.67;3.13;;;;;;;4.99;85.16;100681.19;5004722;28;20069;-84
2022/01/05 10:00:04;;;;;;;23.23;3.78;;;;;;;4.98;85.62;100685.53;5021582;28;20037;-84
2022/01/05 10:02:30;;;;;;;24.67;4.03;;;;;;;4.98;85.75;100682.06;5039012;28;20328;-84
2022/01/05 10:04:56;;;;;;;19.85;2.65;;;;;;;4.98;85.91;100690.72;5004196;28;20071;-84
2022/01/05 10:07:21;;;;;;;14.20;2.72;;;;;;;4.99;86.04;100696.75;4989092;28;20025;-84
2022/01/05 10:09:49;;;;;;;21.98;2.88;;;;;;;5.00;86.14;100701.06;5019285;28;20028;-84
2022/01/05 10:12:14;;;;;;;17.08;2.60;;;;;;;5.02;85.94;100714.88;5028136;28;20072;-84
2022/01/05 10:14:45;;;;;;;16.30;3.08;;;;;;;5.02;85.93;100707.09;5040412;28;20052;-84
2022/01/05 10:17:12;;;;;;;22.55;3.03;;;;;;;5.03;86.01;100708.78;5007628;28;20240;-84
2022/01/05 10:19:38;;;;;;;20.75;3.65;;;;;;;5.05;85.82;100714.81;5010165;28;20067;-84
2022/01/05 10:22:04;;;;;;;27.38;3.50;;;;;;;5.07;85.64;100728.59;5023694;28;20120;-84
2022/01/05 10:24:43;;;;;;;22.55;3.10;;;;;;;5.09;85.68;100721.63;5035181;28;20037;-84
2022/01/05 10:27:14;;;;;;;25.08;3.20;;;;;;;5.12;85.61;100738.91;5035339;28;20033;-84
2022/01/05 10:29:49;;;;;;;32.17;4.18;;;;;;;5.13;85.79;100725.03;5015425;28;20312;-84
2022/01/05 10:32:15;;;;;;;21.50;2.38;;;;;;;5.13;86.37;100740.59;4987220;28;20226;-84
2022/01/05 10:34:41;;;;;;;23.38;3.53;;;;;;;5.14;86.24;100735.38;5023223;28;20045;-84
2022/01/05 10:37:08;;;;;;;28.80;2.63;;;;;;;5.15;86.09;100741.44;5038779;28;20056;-84
2022/01/05 10:39:42;;;;;;;15.50;2.17;;;;;;;5.14;86.29;100750.13;5040699;28;20388;-84
2022/01/05 10:42:12;;;;;;;19.90;3.03;;;;;;;5.14;86.42;100745.75;5006987;28;20068;-84
2022/01/05 10:44:41;;;;;;;18.08;2.95;;;;;;;5.14;86.29;100753.56;5014844;28;20056;-84
2022/01/05 10:47:09;;;;;;;20.85;2.95;;;;;;;5.14;86.67;100756.16;5020010;28;20025;-84
2022/01/05 10:49:39;;;;;;;21.47;3.03;;;;;;;5.13;86.55;100767.44;5045020;28;20036;-84
2022/01/05 10:52:24;;;;;;;14.43;1.88;;;;;;;5.13;86.53;100769.16;5013141;28;20357;-84
2022/01/05 10:54:50;;;;;;;19.67;2.47;;;;;;;5.15;86.29;100757.03;5026701;28;20183;-84
2022/01/05 10:57:15;;;;;;;14.18;2.42;;;;;;;5.14;86.49;100787.31;5006569;28;20260;-85
2022/01/05 10:59:42;;;;;;;20.20;2.78;;;;;;;5.15;86.28;100789.03;5006618;28;20129;-84
2022/01/05 11:02:28;;;;;;;15.18;2.40;;;;;;;5.17;86.37;100765.63;5015820;28;20132;-84
2022/01/05 11:04:55;;;;;;;20.65;2.85;;;;;;;5.17;86.76;100782.06;5001469;28;20021;-83
2022/01/05 11:07:25;;;;;;;21.65;3.05;;;;;;;5.18;86.88;100785.50;5015096;28;20061;-84
2022/01/05 11:10:38;;;;;;;20.45;2.50;;;;;;;5.17;87.26;100781.22;5003873;28;20097;-84
2022/01/05 11:13:03;;;;;;;19.02;2.65;;;;;;;5.17;87.75;100787.25;4914546;29;20425;-84
2022/01/05 11:15:33;;;;;;;20.98;2.35;;;;;;;5.18;87.99;100808.88;4918203;29;20054;-84
2022/01/05 11:18:11;;;;;;;20.58;3.25;;;;;;;5.18;87.76;100785.50;5032530;28;20275;-84
2022/01/05 11:20:51;;;;;;;19.87;2.83;;;;;;;5.17;88.20;100815.81;5038801;28;20103;-85
2022/01/05 11:23:20;;;;;;;19.38;2.97;;;;;;;5.16;88.27;100777.75;5033558;28;20248;-84
2022/01/05 11:25:45;;;;;;;;;;;;;;;5.17;88.51;100773.44;5003356;28;20228;-85
2022/01/05 11:28:11;;;;;;;20.20;4.07;;;;;;;5.19;88.67;100774.25;5013306;28;19913;-83